Time;durP1;ratioP1;P1;durP2;ratioP2;P2;SDS_P1;SDS_P2;PMS_P1;PMS_P2;Temp;Humidity;BMP_temperature;BMP_pressure;BME280_temperature;BME280_humidity;BME280_pressure;Samples;Min_cycle;Max_cycle;Signal;HPM_P1;HPM_P2
2022/11/20 00:01:06;;;;;;;11.60;8.30;;;0.00;99.90;;;;;;4965881;28;20601;-73
2022/11/20 00:03:33;;;;;;;9.47;7.80;;;0.00;99.90;;;;;;4965855;28;20211;-73
2022/11/20 00:06:01;;;;;;;11.03;8.37;;;0.00;99.90;;;;;;4965751;28;20739;-72
2022/11/20 00:08:28;;;;;;;10.10;8.00;;;0.10;99.90;;;;;;4966455;28;20210;-72
2022/11/20 00:10:56;;;;;;;12.00;8.43;;;0.00;99.90;;;;;;4964229;28;20314;-73
2022/11/20 00:13:23;;;;;;;10.40;8.37;;;0.00;99.90;;;;;;4966139;28;20211;-73
2022/11/20 00:15:57;;;;;;;9.30;7.93;;;0.00;99.90;;;;;;4966052;28;20207;-73
2022/11/20 00:18:24;;;;;;;10.07;7.67;;;0.00;99.90;;;;;;4966573;28;20590;-72
2022/11/20 00:20:50;;;;;;;9.13;8.20;;;0.10;99.90;;;;;;4968955;28;20302;-73
2022/11/20 00:23:17;;;;;;;10.17;8.53;;;0.10;99.90;;;;;;4960969;28;20305;-72
2022/11/20 00:25:44;;;;;;;10.93;8.73;;;0.20;99.90;;;;;;4966845;28;20330;-75
2022/11/20 00:28:13;;;;;;;9.43;7.73;;;0.10;99.90;;;;;;4971363;28;20293;-76
2022/11/20 00:30:39;;;;;;;11.37;9.30;;;0.10;99.90;;;;;;4971680;28;20214;-74
2022/11/20 00:33:06;;;;;;;9.27;7.60;;;0.10;99.90;;;;;;4970626;28;20213;-74
2022/11/20 00:35:33;;;;;;;11.77;9.07;;;0.10;99.90;;;;;;4971337;28;20231;-75
2022/11/20 00:38:00;;;;;;;11.63;9.33;;;0.10;99.90;;;;;;4971651;28;20317;-74
2022/11/20 00:40:27;;;;;;;10.13;8.87;;;0.10;99.90;;;;;;4971813;28;20640;-75
2022/11/20 00:42:54;;;;;;;11.03;8.20;;;0.00;99.90;;;;;;4971473;28;20716;-71
2022/11/20 00:45:22;;;;;;;10.87;8.80;;;0.00;99.90;;;;;;4971500;28;20293;-73
2022/11/20 00:47:49;;;;;;;13.60;9.97;;;0.00;99.90;;;;;;4971267;28;20246;-72
2022/11/20 00:50:16;;;;;;;14.40;9.90;;;0.00;99.90;;;;;;4971671;28;20297;-72
2022/11/20 00:52:43;;;;;;;11.57;9.33;;;0.00;99.90;;;;;;4957007;28;20321;-72
2022/11/20 00:55:09;;;;;;;12.27;9.20;;;0.00;99.90;;;;;;4969165;28;20675;-72
2022/11/20 00:57:36;;;;;;;11.40;8.90;;;0.00;99.90;;;;;;4971413;28;20317;-72
2022/11/20 01:00:04;;;;;;;10.33;7.93;;;0.00;99.90;;;;;;4971284;28;20285;-72
2022/11/20 01:02:32;;;;;;;8.97;7.83;;;0.00;99.90;;;;;;4971149;28;20237;-72
2022/11/20 01:04:59;;;;;;;8.30;7.50;;;0.00;99.90;;;;;;4969912;28;20297;-72
2022/11/20 01:07:26;;;;;;;8.93;7.83;;;0.00;99.90;;;;;;4970854;28;20673;-72
2022/11/20 01:09:53;;;;;;;10.17;7.87;;;0.00;99.90;;;;;;4971083;28;21110;-72
2022/11/20 01:12:20;;;;;;;7.80;7.00;;;0.00;99.90;;;;;;4970451;28;20306;-72
2022/11/20 01:14:48;;;;;;;9.30;7.73;;;0.00;99.90;;;;;;4970355;28;20247;-72
2022/11/20 01:17:15;;;;;;;10.20;7.00;;;-0.10;99.90;;;;;;4970334;28;20590;-71
2022/11/20 01:19:43;;;;;;;8.33;7.17;;;0.00;99.90;;;;;;4964417;28;20330;-74
2022/11/20 01:22:10;;;;;;;7.57;6.80;;;0.00;99.90;;;;;;4970628;28;20253;-72
2022/11/20 01:24:37;;;;;;;8.83;7.47;;;0.00;99.90;;;;;;4970952;28;20298;-72
2022/11/20 01:27:04;;;;;;;8.43;7.33;;;0.00;99.90;;;;;;4970206;28;20776;-72
2022/11/20 01:29:31;;;;;;;8.13;7.33;;;0.00;99.90;;;;;;4970253;28;20265;-73
2022/11/20 01:31:58;;;;;;;9.87;8.00;;;0.00;99.90;;;;;;4963830;28;20306;-72
2022/11/20 01:34:25;;;;;;;9.37;7.73;;;-0.10;99.90;;;;;;4951129;28;20302;-72
2022/11/20 01:36:54;;;;;;;8.87;7.50;;;0.00;99.90;;;;;;4968389;28;20289;-72
2022/11/20 01:39:22;;;;;;;8.83;7.30;;;0.00;99.90;;;;;;4969984;28;20576;-73
2022/11/20 01:44:49;;;;;;;9.63;7.70;;;0.00;99.90;;;;;;4970059;28;20253;-72
2022/11/20 01:47:22;;;;;;;9.43;7.13;;;-0.10;99.90;;;;;;4969849;28;21027;-72
2022/11/20 01:49:53;;;;;;;9.10;7.47;;;-0.10;99.90;;;;;;4970055;28;20278;-72
2022/11/20 01:52:24;;;;;;;9.00;7.70;;;-0.10;99.90;;;;;;4969936;28;20289;-73
2022/11/20 01:54:55;;;;;;;9.17;7.60;;;-0.10;99.90;;;;;;4970209;28;20294;-75
2022/11/20 01:57:25;;;;;;;9.03;8.07;;;-0.10;99.90;;;;;;4970292;28;20322;-73
2022/11/20 01:59:56;;;;;;;8.40;7.50;;;-0.20;99.90;;;;;;4969920;28;20199;-73
2022/11/20 02:02:22;;;;;;;9.50;7.80;;;-0.20;99.90;;;;;;4969949;28;20237;-74
2022/11/20 02:04:52;;;;;;;9.47;7.60;;;-0.20;99.90;;;;;;4969702;28;20237;-73
2022/11/20 02:07:21;;;;;;;8.77;7.73;;;-0.20;99.90;;;;;;4969872;28;20302;-72
2022/11/20 02:09:48;;;;;;;10.03;8.07;;;-0.20;99.90;;;;;;4969565;28;20309;-72
2022/11/20 02:14:57;;;;;;;9.70;7.80;;;-0.20;99.90;;;;;;4969733;28;20558;-71
2022/11/20 02:17:25;;;;;;;9.63;8.43;;;-0.20;99.90;;;;;;4969884;28;20309;-72
2022/11/20 02:19:52;;;;;;;10.37;8.60;;;-0.20;99.90;;;;;;4969709;28;20302;-75
2022/11/20 02:22:24;;;;;;;9.67;8.27;;;-0.20;99.90;;;;;;4969757;28;20322;-72
2022/11/20 02:24:52;;;;;;;11.33;8.53;;;-0.20;99.90;;;;;;4969286;28;20645;-73
2022/11/20 02:27:19;;;;;;;11.07;8.60;;;-0.30;99.90;;;;;;4969543;28;20217;-73
2022/11/20 02:29:52;;;;;;;11.20;8.60;;;-0.30;99.90;;;;;;4969066;28;20867;-72
2022/11/20 02:32:20;;;;;;;10.30;8.60;;;-0.30;99.90;;;;;;4969516;28;20298;-72
2022/11/20 02:34:47;;;;;;;10.00;8.67;;;-0.30;99.90;;;;;;4969243;28;20297;-71
2022/11/20 02:37:15;;;;;;;11.10;9.10;;;-0.30;99.90;;;;;;4969437;28;20306;-71
2022/11/20 02:39:45;;;;;;;10.53;8.17;;;-0.30;99.90;;;;;;4969301;28;20745;-72
2022/11/20 02:42:13;;;;;;;10.83;8.27;;;-0.20;99.90;;;;;;4968677;28;20317;-72
2022/11/20 02:44:40;;;;;;;10.53;8.93;;;-0.20;99.90;;;;;;4969367;28;20207;-72
2022/11/20 02:47:07;;;;;;;13.37;9.27;;;-0.20;99.90;;;;;;4968701;28;20277;-72
2022/11/20 02:49:34;;;;;;;10.83;8.37;;;-0.30;99.90;;;;;;4969078;28;20268;-72
2022/11/20 02:52:01;;;;;;;10.23;8.90;;;-0.30;99.90;;;;;;4968955;28;20293;-72
2022/11/20 02:54:28;;;;;;;12.60;9.10;;;-0.30;99.90;;;;;;4968832;28;20199;-72
2022/11/20 02:56:55;;;;;;;11.87;9.13;;;-0.30;99.90;;;;;;4968850;28;20239;-72
2022/11/20 02:59:23;;;;;;;11.13;9.07;;;-0.30;99.90;;;;;;4969276;28;20298;-71
2022/11/20 03:01:50;;;;;;;10.37;8.90;;;-0.30;99.90;;;;;;4968223;28;20226;-72
2022/11/20 03:04:17;;;;;;;10.93;9.00;;;-0.30;99.90;;;;;;4968970;28;20219;-71
2022/11/20 03:06:44;;;;;;;13.03;9.70;;;-0.30;99.90;;;;;;4968626;28;20338;-72
2022/11/20 03:09:13;;;;;;;10.97;8.87;;;-0.30;99.90;;;;;;4968902;28;20203;-71
2022/11/20 03:11:39;;;;;;;10.87;9.20;;;-0.30;99.90;;;;;;4968777;28;20211;-71
2022/11/20 03:14:07;;;;;;;12.23;8.80;;;-0.30;99.90;;;;;;4968638;28;20297;-71
2022/11/20 03:16:35;;;;;;;9.77;8.57;;;-0.30;99.90;;;;;;4968382;28;20301;-71
2022/11/20 03:19:02;;;;;;;11.77;9.40;;;-0.30;99.90;;;;;;4968838;28;20615;-72
2022/11/20 03:21:29;;;;;;;11.47;9.10;;;-0.30;99.90;;;;;;4968808;28;20592;-71
2022/11/20 03:23:55;;;;;;;10.77;9.50;;;-0.30;99.90;;;;;;4968576;28;20206;-71
2022/11/20 03:26:24;;;;;;;10.97;9.40;;;-0.30;99.90;;;;;;4968481;28;20203;-70
2022/11/20 03:28:53;;;;;;;10.33;9.07;;;-0.30;99.90;;;;;;4968604;28;20764;-70
2022/11/20 03:31:22;;;;;;;11.90;8.47;;;-0.30;99.90;;;;;;4968266;28;20302;-70
2022/11/20 03:33:50;;;;;;;10.03;8.63;;;-0.30;99.90;;;;;;4968412;28;20752;-71
2022/11/20 03:36:19;;;;;;;13.00;9.20;;;-0.30;99.90;;;;;;4968433;28;20309;-71
2022/11/20 03:38:46;;;;;;;12.07;9.10;;;-0.30;99.90;;;;;;4968300;28;20227;-71
2022/11/20 03:41:15;;;;;;;11.53;9.03;;;-0.30;99.90;;;;;;4968610;28;20233;-71
2022/11/20 03:43:42;;;;;;;11.93;9.40;;;-0.30;99.90;;;;;;4968566;28;20266;-71
2022/11/20 03:46:09;;;;;;;12.03;9.27;;;-0.30;99.90;;;;;;4968049;28;20213;-70
2022/11/20 03:48:36;;;;;;;11.53;8.87;;;-0.30;99.90;;;;;;4968562;28;20289;-76
2022/11/20 03:51:13;;;;;;;11.67;9.57;;;-0.30;99.90;;;;;;4968261;28;20972;-77
2022/11/20 03:53:40;;;;;;;11.37;9.53;;;-0.30;99.90;;;;;;4970127;28;20194;-76
2022/11/20 03:56:08;;;;;;;13.83;9.60;;;-0.30;99.90;;;;;;4972379;28;20591;-76
2022/11/20 03:58:36;;;;;;;12.63;9.27;;;-0.30;99.90;;;;;;4972428;28;20257;-76
2022/11/20 04:01:08;;;;;;;12.23;9.40;;;-0.30;99.90;;;;;;4963622;28;20385;-74
2022/11/20 04:03:35;;;;;;;12.83;9.50;;;-0.30;99.90;;;;;;4972035;28;20601;-76
2022/11/20 04:06:07;;;;;;;12.67;10.00;;;-0.20;99.90;;;;;;4972081;28;20243;-76
2022/11/20 04:08:35;;;;;;;12.93;9.33;;;-0.20;99.90;;;;;;4972744;28;20214;-75
2022/11/20 04:11:13;;;;;;;12.60;9.57;;;-0.20;99.90;;;;;;4972159;28;20207;-74
2022/11/20 04:13:40;;;;;;;12.57;9.53;;;-0.10;99.90;;;;;;4972601;28;20261;-71
2022/11/20 04:16:08;;;;;;;12.17;10.40;;;-0.10;99.90;;;;;;4971722;28;20298;-70
2022/11/20 04:18:35;;;;;;;13.10;10.50;;;-0.10;99.90;;;;;;4972113;28;20246;-71
2022/11/20 04:21:03;;;;;;;11.83;9.47;;;0.00;99.90;;;;;;4971931;28;20215;-71
2022/11/20 04:23:30;;;;;;;11.53;9.63;;;0.00;99.90;;;;;;4971833;28;20227;-71
2022/11/20 04:26:04;;;;;;;12.00;9.90;;;-0.10;99.90;;;;;;4971235;28;20305;-72
2022/11/20 04:28:31;;;;;;;12.60;9.57;;;-0.10;99.90;;;;;;4971630;28;20293;-72
2022/11/20 04:31:06;;;;;;;13.47;10.07;;;-0.20;99.90;;;;;;4971522;28;20203;-72
2022/11/20 04:33:33;;;;;;;11.30;8.97;;;-0.20;99.90;;;;;;4971754;28;20336;-77
2022/11/20 04:36:04;;;;;;;12.03;9.43;;;-0.20;99.90;;;;;;4971434;28;20638;-76
2022/11/20 04:38:31;;;;;;;12.13;9.33;;;-0.20;99.90;;;;;;4971736;28;20289;-75
2022/11/20 04:40:59;;;;;;;10.90;8.80;;;-0.20;99.90;;;;;;4971695;28;20315;-76
2022/11/20 04:43:28;;;;;;;11.87;9.53;;;-0.20;99.90;;;;;;4985991;28;20320;-73
2022/11/20 04:45:55;;;;;;;13.40;9.70;;;-0.20;99.90;;;;;;4990660;28;20297;-73
2022/11/20 04:48:22;;;;;;;12.23;9.57;;;-0.20;99.90;;;;;;4989983;28;20209;-73
2022/11/20 04:50:49;;;;;;;12.07;9.57;;;-0.20;99.90;;;;;;4971315;28;20207;-74
2022/11/20 04:53:16;;;;;;;13.20;10.13;;;-0.20;99.90;;;;;;4971266;28;20737;-76
2022/11/20 04:55:43;;;;;;;12.63;9.33;;;-0.20;99.90;;;;;;4971192;28;20306;-74
2022/11/20 04:58:10;;;;;;;11.67;9.80;;;-0.20;99.90;;;;;;4970747;28;20709;-73
2022/11/20 05:00:38;;;;;;;13.33;9.97;;;-0.20;99.90;;;;;;4970511;28;20913;-76
2022/11/20 05:03:05;;;;;;;13.33;10.20;;;-0.20;99.90;;;;;;4971057;28;20804;-76
2022/11/20 05:05:34;;;;;;;12.90;9.63;;;-0.20;99.90;;;;;;4970034;28;20646;-76
2022/11/20 05:08:00;;;;;;;11.93;9.63;;;-0.10;99.90;;;;;;4963393;28;20249;-76
2022/11/20 05:10:28;;;;;;;12.30;9.97;;;-0.10;99.90;;;;;;4952004;28;20290;-73
2022/11/20 05:12:55;;;;;;;13.17;9.43;;;-0.10;99.90;;;;;;4959258;28;20298;-75
2022/11/20 05:15:22;;;;;;;12.83;9.67;;;-0.10;99.90;;;;;;4970728;28;20305;-76
2022/11/20 05:17:51;;;;;;;12.73;10.30;;;-0.10;99.90;;;;;;4970863;28;20297;-73
2022/11/20 05:20:18;;;;;;;12.30;9.43;;;-0.10;99.90;;;;;;4970896;28;20307;-71
2022/11/20 05:22:46;;;;;;;13.53;10.43;;;-0.10;99.90;;;;;;4970450;28;20227;-71
2022/11/20 05:25:13;;;;;;;12.40;9.20;;;-0.10;99.90;;;;;;4970687;28;20203;-71
2022/11/20 05:27:40;;;;;;;11.27;9.10;;;-0.10;99.90;;;;;;4970676;28;20301;-71
2022/11/20 05:30:08;;;;;;;12.83;9.97;;;-0.10;99.90;;;;;;4970375;28;20306;-71
2022/11/20 05:32:35;;;;;;;15.70;9.87;;;-0.10;99.90;;;;;;4970273;28;20802;-71
2022/11/20 05:35:03;;;;;;;14.30;9.93;;;-0.10;99.90;;;;;;4970359;28;20302;-71
2022/11/20 05:37:30;;;;;;;12.77;9.70;;;0.00;99.90;;;;;;4966558;28;20706;-71
2022/11/20 05:39:57;;;;;;;12.27;9.33;;;-0.10;99.90;;;;;;4951119;28;20247;-71
2022/11/20 05:42:33;;;;;;;13.40;10.40;;;0.00;99.90;;;;;;4951093;28;20215;-72
2022/11/20 05:45:01;;;;;;;11.50;9.47;;;-0.10;99.90;;;;;;4950998;28;21076;-72
2022/11/20 05:47:31;;;;;;;14.57;10.17;;;-0.10;99.90;;;;;;4950982;28;20298;-72
2022/11/20 05:49:58;;;;;;;12.97;9.50;;;0.00;99.90;;;;;;4968700;28;20281;-72
2022/11/20 05:52:29;;;;;;;13.87;9.77;;;0.00;99.90;;;;;;4970265;28;20317;-71
2022/11/20 05:54:56;;;;;;;13.50;10.33;;;0.00;99.90;;;;;;4969978;28;20229;-73
2022/11/20 05:57:23;;;;;;;12.10;9.80;;;0.00;99.90;;;;;;4970004;28;20317;-72
2022/11/20 05:59:50;;;;;;;14.93;10.50;;;0.00;99.90;;;;;;4969574;28;20644;-76
2022/11/20 06:02:17;;;;;;;12.23;10.13;;;0.00;99.90;;;;;;4969965;28;20732;-75
2022/11/20 06:04:44;;;;;;;12.90;9.90;;;0.00;99.90;;;;;;4969873;28;20293;-71
2022/11/20 06:07:11;;;;;;;14.50;10.23;;;0.00;99.90;;;;;;4970195;28;20282;-72
2022/11/20 06:09:39;;;;;;;14.07;10.70;;;0.00;99.90;;;;;;4970210;28;20214;-70
2022/11/20 06:12:07;;;;;;;15.30;10.53;;;0.00;99.90;;;;;;4969774;28;20297;-71
2022/11/20 06:14:33;;;;;;;14.90;10.00;;;0.00;99.90;;;;;;4969560;28;20301;-72
2022/11/20 06:17:00;;;;;;;14.37;9.90;;;0.00;99.90;;;;;;4969492;28;20314;-72
2022/11/20 06:19:27;;;;;;;10.93;9.60;;;0.00;99.90;;;;;;4969919;28;20309;-70
2022/11/20 06:21:54;;;;;;;12.10;10.13;;;0.10;99.90;;;;;;4969977;28;20210;-75
2022/11/20 06:24:21;;;;;;;14.40;10.43;;;0.10;99.90;;;;;;4969414;28;20318;-76
2022/11/20 06:26:49;;;;;;;13.00;10.23;;;0.00;99.90;;;;;;4969921;28;20207;-75
2022/11/20 06:29:16;;;;;;;13.07;10.03;;;0.20;99.90;;;;;;4969619;28;20211;-76
2022/11/20 06:31:44;;;;;;;17.27;11.27;;;0.20;99.90;;;;;;4969304;28;20325;-72
2022/11/20 06:34:11;;;;;;;12.60;9.63;;;0.20;99.90;;;;;;4969511;28;20211;-73
2022/11/20 06:36:38;;;;;;;12.87;9.70;;;0.20;99.90;;;;;;4969148;28;20315;-71
2022/11/20 06:39:04;;;;;;;13.93;10.30;;;0.20;99.90;;;;;;4969337;28;20211;-72
2022/11/20 06:41:31;;;;;;;13.83;10.53;;;0.30;99.90;;;;;;4969378;28;20321;-72
2022/11/20 06:43:59;;;;;;;12.37;10.20;;;0.30;99.90;;;;;;4969485;28;20326;-72
2022/11/20 06:46:27;;;;;;;12.13;9.70;;;0.20;99.90;;;;;;4968688;28;20214;-72
2022/11/20 06:48:54;;;;;;;13.47;9.43;;;0.20;99.90;;;;;;4968976;28;20207;-72
2022/11/20 06:51:21;;;;;;;11.90;9.53;;;0.10;99.90;;;;;;4969009;28;20215;-72
2022/11/20 06:53:48;;;;;;;14.00;10.00;;;0.20;99.90;;;;;;4969307;28;20304;-76
2022/11/20 06:56:15;;;;;;;13.27;10.30;;;0.20;99.90;;;;;;4968991;28;20261;-74
2022/11/20 06:58:42;;;;;;;14.47;10.53;;;0.20;99.90;;;;;;4969292;28;20211;-77
2022/11/20 07:01:13;;;;;;;13.37;10.37;;;0.10;99.90;;;;;;4968828;28;20234;-75
2022/11/20 07:03:41;;;;;;;13.13;10.63;;;0.10;99.90;;;;;;4968970;28;20326;-73
2022/11/20 07:06:08;;;;;;;14.47;10.20;;;0.20;99.90;;;;;;4968622;28;20324;-76
2022/11/20 07:08:35;;;;;;;14.13;10.47;;;0.20;99.90;;;;;;4969157;28;20297;-76
2022/11/20 07:11:05;;;;;;;12.83;10.40;;;0.20;99.90;;;;;;4968698;28;20207;-75
2022/11/20 07:13:32;;;;;;;14.13;10.23;;;0.20;99.90;;;;;;4968902;28;20310;-76
2022/11/20 07:16:01;;;;;;;13.80;10.83;;;0.20;99.90;;;;;;4968449;28;20297;-73
2022/11/20 07:18:29;;;;;;;14.77;10.40;;;0.20;99.90;;;;;;4968918;28;20214;-71
2022/11/20 07:20:56;;;;;;;14.03;10.53;;;0.20;99.90;;;;;;4968951;28;20313;-72
2022/11/20 07:23:23;;;;;;;15.33;11.00;;;0.20;99.90;;;;;;4968709;28;20277;-74
2022/11/20 07:25:50;;;;;;;13.77;11.00;;;0.20;99.90;;;;;;4968769;28;20218;-73
2022/11/20 07:28:17;;;;;;;13.43;10.67;;;0.20;99.90;;;;;;4968246;28;20210;-75
2022/11/20 07:30:44;;;;;;;15.50;11.90;;;0.20;99.90;;;;;;4968481;28;20666;-74
2022/11/20 07:33:11;;;;;;;14.87;11.30;;;0.20;99.90;;;;;;4968714;28;20241;-76
2022/11/20 07:35:39;;;;;;;13.60;10.70;;;0.20;99.90;;;;;;4968767;28;20285;-72
2022/11/20 07:38:06;;;;;;;15.60;11.13;;;0.20;99.90;;;;;;4968555;28;20686;-73
2022/11/20 07:40:33;;;;;;;14.97;11.60;;;0.20;99.90;;;;;;4969050;28;20211;-75
2022/11/20 07:42:59;;;;;;;14.13;11.07;;;0.20;99.90;;;;;;4962867;28;20207;-73
2022/11/20 07:45:26;;;;;;;16.30;11.33;;;0.20;99.90;;;;;;4954952;28;20309;-74
2022/11/20 07:47:53;;;;;;;16.63;11.67;;;0.20;99.90;;;;;;4968616;28;20820;-72
2022/11/20 07:50:21;;;;;;;15.13;10.53;;;0.30;99.90;;;;;;4969028;28;20290;-73
2022/11/20 07:52:50;;;;;;;14.13;11.17;;;0.30;99.90;;;;;;4968285;28;20282;-73
2022/11/20 07:55:17;;;;;;;14.53;10.80;;;0.30;99.90;;;;;;4968519;28;20724;-73
2022/11/20 07:57:44;;;;;;;13.40;10.80;;;0.30;99.90;;;;;;4968229;28;20262;-74
2022/11/20 08:00:13;;;;;;;12.07;10.10;;;0.30;99.90;;;;;;4968728;28;20265;-73
2022/11/20 08:02:40;;;;;;;14.60;10.80;;;0.40;99.90;;;;;;4968511;28;20208;-74
2022/11/20 08:05:08;;;;;;;13.80;10.20;;;0.40;99.90;;;;;;4967871;28;20247;-72
2022/11/20 08:07:38;;;;;;;13.60;9.83;;;0.30;99.90;;;;;;4968747;28;20226;-71
2022/11/20 08:10:08;;;;;;;12.83;10.03;;;0.30;99.90;;;;;;4968789;28;20289;-74
2022/11/20 08:15:19;;;;;;;13.87;10.93;;;0.30;99.90;;;;;;4968367;28;20202;-70
2022/11/20 08:17:46;;;;;;;13.83;10.83;;;0.20;99.90;;;;;;4968222;28;20207;-71
2022/11/20 08:20:13;;;;;;;13.70;10.57;;;0.20;99.90;;;;;;4968437;28;20262;-73
2022/11/20 08:22:40;;;;;;;13.73;10.33;;;0.20;99.90;;;;;;4968147;28;20741;-74
2022/11/20 08:25:11;;;;;;;12.90;10.10;;;0.20;99.90;;;;;;4968068;28;20788;-74
2022/11/20 08:27:37;;;;;;;14.63;10.83;;;0.20;99.90;;;;;;4968627;28;20246;-73
2022/11/20 08:30:05;;;;;;;15.23;11.17;;;0.20;99.90;;;;;;4967822;28;20665;-73
2022/11/20 08:32:34;;;;;;;12.33;9.90;;;0.30;99.90;;;;;;4967922;28;20290;-75
2022/11/20 08:35:01;;;;;;;13.97;10.43;;;0.30;99.90;;;;;;4967915;28;20682;-71
2022/11/20 08:37:28;;;;;;;14.03;10.57;;;0.30;99.90;;;;;;4968347;28;20622;-72
2022/11/20 08:39:56;;;;;;;13.07;10.07;;;0.30;99.90;;;;;;4968294;28;20219;-73
2022/11/20 08:42:24;;;;;;;14.77;10.37;;;0.30;99.90;;;;;;4971328;28;20708;-71
2022/11/20 08:44:51;;;;;;;12.43;10.20;;;0.30;99.90;;;;;;4971508;28;20671;-71
2022/11/20 08:47:18;;;;;;;12.80;9.63;;;0.30;99.90;;;;;;4971584;28;20215;-72
2022/11/20 08:49:45;;;;;;;14.13;10.20;;;0.30;99.90;;;;;;4968187;28;20671;-73
2022/11/20 08:52:12;;;;;;;10.73;9.47;;;0.30;99.90;;;;;;4965515;28;20207;-74
2022/11/20 08:54:39;;;;;;;13.10;10.40;;;0.30;99.90;;;;;;4969435;28;20741;-72
2022/11/20 08:57:06;;;;;;;14.47;10.87;;;0.40;99.90;;;;;;4961575;28;20314;-72
2022/11/20 08:59:34;;;;;;;12.60;9.93;;;0.40;99.90;;;;;;4962601;28;20239;-75
2022/11/20 09:02:01;;;;;;;11.80;9.70;;;0.40;99.90;;;;;;4962508;28;20290;-72
2022/11/20 09:04:27;;;;;;;11.67;9.40;;;0.40;99.90;;;;;;4960856;28;20326;-72
2022/11/20 09:06:54;;;;;;;12.30;9.87;;;0.40;99.90;;;;;;4962094;28;20235;-71
2022/11/20 09:09:21;;;;;;;12.87;9.90;;;0.40;99.90;;;;;;4962028;28;20247;-72
2022/11/20 09:11:49;;;;;;;13.27;10.07;;;0.40;99.90;;;;;;4955777;28;20311;-73
2022/11/20 09:14:16;;;;;;;11.93;8.57;;;0.40;99.90;;;;;;4968486;28;20203;-72
2022/11/20 09:16:46;;;;;;;12.23;9.63;;;0.40;99.90;;;;;;4968624;28;20322;-73
2022/11/20 09:19:13;;;;;;;11.60;9.10;;;0.40;99.90;;;;;;4968552;28;20666;-72
2022/11/20 09:21:40;;;;;;;12.20;9.67;;;0.40;99.90;;;;;;4949874;28;20235;-73
2022/11/20 09:24:07;;;;;;;11.27;9.40;;;0.40;99.90;;;;;;4967203;28;20269;-72
2022/11/20 09:26:34;;;;;;;15.97;11.87;;;0.40;99.90;;;;;;4968589;28;20741;-73
2022/11/20 09:29:01;;;;;;;14.33;11.63;;;0.40;99.90;;;;;;4968326;28;20673;-73
2022/11/20 09:31:28;;;;;;;12.07;9.33;;;0.40;99.90;;;;;;4954171;28;20655;-72
2022/11/20 09:33:56;;;;;;;12.13;9.27;;;0.40;99.90;;;;;;4958876;28;20228;-71
2022/11/20 09:36:23;;;;;;;14.60;9.93;;;0.50;99.90;;;;;;4968347;28;20301;-71
2022/11/20 09:38:50;;;;;;;12.37;10.10;;;0.50;99.90;;;;;;4962874;28;20754;-72
2022/11/20 09:41:41;;;;;;;12.00;10.03;;;0.60;99.90;;;;;;4968845;28;20211;-72
2022/11/20 09:44:19;;;;;;;12.43;9.83;;;0.70;99.90;;;;;;4968330;28;20321;-72
2022/11/20 09:46:54;;;;;;;12.30;10.03;;;0.60;99.90;;;;;;4968142;28;20290;-72
2022/11/20 09:49:33;;;;;;;11.97;9.40;;;0.60;99.90;;;;;;4968635;28;20210;-72
2022/11/20 09:52:02;;;;;;;10.33;8.97;;;0.60;99.90;;;;;;4967945;28;20194;-73
2022/11/20 09:54:32;;;;;;;11.70;9.23;;;0.60;99.90;;;;;;4968297;28;20266;-72
2022/11/20 09:57:02;;;;;;;11.57;8.83;;;0.60;99.90;;;;;;4968278;28;20226;-72
2022/11/20 09:59:37;;;;;;;12.03;9.20;;;0.60;99.90;;;;;;4968087;28;20688;-73
2022/11/20 10:02:15;;;;;;;11.33;9.07;;;0.60;99.90;;;;;;4968627;28;20260;-73
2022/11/20 10:04:49;;;;;;;11.50;8.27;;;0.50;99.90;;;;;;4968117;28;20228;-73
2022/11/20 10:07:20;;;;;;;10.13;8.73;;;0.60;99.90;;;;;;4966987;28;20569;-72
2022/11/20 10:09:53;;;;;;;9.57;8.30;;;0.60;99.90;;;;;;4966955;28;20594;-73
2022/11/20 10:12:28;;;;;;;10.27;8.07;;;0.50;99.90;;;;;;4967824;28;20310;-72
2022/11/20 10:15:04;;;;;;;10.33;8.37;;;0.50;99.90;;;;;;4963100;28;20290;-72
2022/11/20 10:17:47;;;;;;;10.57;8.60;;;0.60;99.90;;;;;;4956806;28;20294;-73
2022/11/20 10:20:25;;;;;;;9.97;7.93;;;0.60;99.90;;;;;;4968356;28;20291;-73
2022/11/20 10:23:11;;;;;;;8.93;7.83;;;0.60;99.90;;;;;;4968122;28;20290;-72
2022/11/20 10:25:41;;;;;;;10.23;8.53;;;0.60;99.90;;;;;;4968162;28;20329;-72
2022/11/20 10:28:20;;;;;;;11.37;8.97;;;0.70;99.90;;;;;;4967934;28;20318;-72
2022/11/20 10:30:53;;;;;;;9.33;8.23;;;0.70;99.90;;;;;;4948321;29;20294;-72
2022/11/20 10:33:24;;;;;;;9.67;8.20;;;0.60;99.90;;;;;;4955742;28;20290;-72
2022/11/20 10:35:58;;;;;;;9.50;7.80;;;0.70;99.90;;;;;;4966826;28;20223;-72
2022/11/20 10:38:32;;;;;;;9.77;8.00;;;0.70;99.90;;;;;;4967304;28;20206;-72
2022/11/20 10:43:44;;;;;;;9.37;7.50;;;0.80;99.90;;;;;;4958668;28;20202;-72
2022/11/20 10:46:16;;;;;;;8.23;7.30;;;0.80;99.90;;;;;;4957295;28;20299;-72
2022/11/20 10:48:45;;;;;;;8.60;7.70;;;0.80;99.90;;;;;;4957190;28;20278;-72
2022/11/20 10:51:35;;;;;;;8.70;7.53;;;0.80;99.90;;;;;;4961984;28;20203;-71
2022/11/20 10:54:16;;;;;;;7.97;7.13;;;0.80;99.90;;;;;;4950448;28;20625;-71
2022/11/20 10:56:47;;;;;;;11.50;10.30;;;0.90;99.90;;;;;;4957779;28;20234;-72
2022/11/20 10:59:39;;;;;;;8.23;7.37;;;1.00;99.90;;;;;;4959777;28;20206;-76
2022/11/20 11:02:21;;;;;;;9.47;7.57;;;1.00;99.90;;;;;;4960852;28;20214;-74
2022/11/20 11:04:49;;;;;;;7.63;6.83;;;1.00;99.90;;;;;;4963046;28;20310;-73
2022/11/20 11:07:22;;;;;;;9.10;7.23;;;1.00;99.90;;;;;;4964706;28;20192;-72
2022/11/20 11:09:51;;;;;;;9.23;6.90;;;1.00;99.90;;;;;;4957036;28;20662;-72
2022/11/20 11:12:18;;;;;;;8.77;7.57;;;1.10;99.90;;;;;;4955939;28;20242;-72
2022/11/20 11:14:50;;;;;;;8.77;6.63;;;1.00;99.90;;;;;;4964397;28;20213;-72
2022/11/20 11:17:27;;;;;;;8.10;6.80;;;1.10;99.90;;;;;;4955421;28;20634;-73
2022/11/20 11:20:02;;;;;;;7.80;7.03;;;1.10;99.90;;;;;;4956649;28;20199;-72
2022/11/20 11:22:32;;;;;;;8.07;7.13;;;1.00;99.90;;;;;;4961328;28;20591;-72
2022/11/20 11:25:00;;;;;;;7.00;6.40;;;1.00;99.90;;;;;;4962322;28;20748;-72
2022/11/20 11:27:27;;;;;;;7.80;6.77;;;1.00;99.90;;;;;;4962988;28;20270;-72
2022/11/20 11:30:05;;;;;;;7.73;7.03;;;1.00;99.90;;;;;;4953435;28;20315;-72
2022/11/20 11:32:31;;;;;;;8.13;6.50;;;1.00;99.90;;;;;;4965131;28;20297;-72
2022/11/20 11:35:02;;;;;;;7.57;6.50;;;0.90;99.90;;;;;;4967113;28;20210;-72
2022/11/20 11:37:35;;;;;;;7.60;6.67;;;0.80;99.90;;;;;;4966883;28;20788;-72
2022/11/20 11:40:02;;;;;;;9.47;7.70;;;0.80;99.90;;;;;;4967064;28;20206;-72
2022/11/20 11:42:30;;;;;;;7.73;6.93;;;0.90;99.90;;;;;;4966185;28;20262;-72
2022/11/20 11:45:07;;;;;;;8.03;7.07;;;0.80;99.90;;;;;;4966697;28;20235;-72
2022/11/20 11:47:38;;;;;;;8.17;6.80;;;0.80;99.90;;;;;;4966603;28;20720;-71
2022/11/20 11:50:17;;;;;;;8.47;7.63;;;0.80;99.90;;;;;;4966151;28;20199;-72
2022/11/20 11:52:51;;;;;;;10.13;8.07;;;0.80;99.90;;;;;;4958774;28;20294;-73
2022/11/20 11:55:28;;;;;;;9.50;7.33;;;0.90;99.90;;;;;;4955896;28;20202;-71
2022/11/20 11:58:02;;;;;;;8.60;6.70;;;0.80;99.90;;;;;;4957899;28;20835;-72
2022/11/20 12:00:29;;;;;;;7.60;6.80;;;0.80;99.90;;;;;;4951914;28;20281;-72
2022/11/20 12:03:06;;;;;;;7.47;6.67;;;0.90;99.90;;;;;;4962774;28;20411;-73
2022/11/20 12:05:39;;;;;;;7.17;6.47;;;0.90;99.90;;;;;;4950618;28;20705;-72
2022/11/20 12:08:16;;;;;;;8.13;7.03;;;1.00;99.90;;;;;;4959939;28;20294;-72
2022/11/20 12:10:49;;;;;;;7.93;7.20;;;1.10;99.90;;;;;;4952142;28;20196;-71
2022/11/20 12:13:40;;;;;;;7.20;6.33;;;1.10;99.90;;;;;;4957966;28;20323;-72
2022/11/20 12:16:13;;;;;;;7.17;6.47;;;1.20;99.90;;;;;;4969929;28;20199;-71
2022/11/20 12:18:41;;;;;;;6.80;6.20;;;1.20;99.90;;;;;;4969915;28;20290;-72
2022/11/20 12:21:21;;;;;;;7.07;6.10;;;1.20;99.90;;;;;;4970590;28;20301;-72
2022/11/20 12:24:12;;;;;;;6.43;5.83;;;1.20;99.90;;;;;;4970248;28;20631;-72
2022/11/20 12:26:52;;;;;;;7.23;5.80;;;1.20;99.90;;;;;;4970530;28;20358;-72
2022/11/20 12:29:28;;;;;;;5.60;5.10;;;1.20;99.90;;;;;;4950953;28;20375;-72
2022/11/20 12:32:06;;;;;;;6.80;5.90;;;1.20;99.90;;;;;;4963902;28;20198;-72
2022/11/20 12:34:57;;;;;;;6.90;5.70;;;1.20;99.90;;;;;;4955948;28;20205;-72
2022/11/20 12:37:38;;;;;;;6.67;6.00;;;1.10;99.90;;;;;;4963393;28;20631;-72
2022/11/20 12:40:24;;;;;;;6.43;5.73;;;1.10;99.90;;;;;;4969637;28;20199;-73
2022/11/20 12:46:06;;;;;;;7.63;5.87;;;1.10;99.90;;;;;;4963691;28;20218;-73
2022/11/20 12:48:43;;;;;;;7.00;6.13;;;1.10;99.90;;;;;;4961611;28;20721;-73
2022/11/20 12:51:37;;;;;;;6.97;6.27;;;1.10;99.90;;;;;;4962383;28;20334;-71
2022/11/20 12:54:28;;;;;;;7.07;6.13;;;1.10;99.90;;;;;;4954411;28;20286;-71
2022/11/20 12:57:07;;;;;;;7.00;6.30;;;1.20;99.90;;;;;;4969419;28;20223;-73
2022/11/20 13:00:01;;;;;;;8.70;6.27;;;1.10;99.90;;;;;;4969858;28;20277;-72
2022/11/20 13:02:36;;;;;;;8.47;6.47;;;1.10;99.90;;;;;;4969715;28;20294;-71
2022/11/20 13:05:19;;;;;;;7.20;5.93;;;1.10;99.90;;;;;;4969083;28;20242;-72
2022/11/20 13:07:47;;;;;;;7.40;6.40;;;1.10;99.90;;;;;;4969268;28;20313;-72
2022/11/20 13:10:21;;;;;;;7.27;6.57;;;1.00;99.90;;;;;;4969259;28;20257;-72
2022/11/20 13:12:55;;;;;;;7.70;6.77;;;1.00;99.90;;;;;;4969732;28;20964;-72